sensor_id;sensor_type;location;lat;lon;timestamp;pressure;altitude;pressure_sealevel;temperature;humidity
62800;BME280;48842;51.046;13.796;2023-02-11T00:01:14;102049.38;;;4.27;55.10
62800;BME280;48842;51.046;13.796;2023-02-11T00:03:42;102049.22;;;4.24;55.25
62800;BME280;48842;51.046;13.796;2023-02-11T00:06:07;102052.59;;;4.23;55.29
62800;BME280;48842;51.046;13.796;2023-02-11T00:08:36;102049.03;;;4.21;55.21
62800;BME280;48842;51.046;13.796;2023-02-11T00:11:02;102035.94;;;4.19;55.33
62800;BME280;48842;51.046;13.796;2023-02-11T00:13:28;102036.88;;;4.19;55.42
62800;BME280;48842;51.046;13.796;2023-02-11T00:15:53;102032.38;;;4.17;55.87
62800;BME280;48842;51.046;13.796;2023-02-11T00:18:19;102022.81;;;4.16;55.68
62800;BME280;48842;51.046;13.796;2023-02-11T00:20:45;102025.22;;;4.13;55.50
62800;BME280;48842;51.046;13.796;2023-02-11T00:23:10;102014.78;;;4.11;56.09
62800;BME280;48842;51.046;13.796;2023-02-11T00:25:43;102029.44;;;4.11;55.35
62800;BME280;48842;51.046;13.796;2023-02-11T00:28:10;102028.44;;;4.09;55.89
62800;BME280;48842;51.046;13.796;2023-02-11T00:30:35;102020.59;;;4.07;55.83
62800;BME280;48842;51.046;13.796;2023-02-11T00:33:01;102009.31;;;4.07;56.17
62800;BME280;48842;51.046;13.796;2023-02-11T00:35:26;102001.38;;;4.04;56.12
62800;BME280;48842;51.046;13.796;2023-02-11T00:37:52;102002.16;;;4.02;56.28
62800;BME280;48842;51.046;13.796;2023-02-11T00:40:17;101990.00;;;4.01;56.01
62800;BME280;48842;51.046;13.796;2023-02-11T00:42:43;101990.91;;;4.02;56.46
62800;BME280;48842;51.046;13.796;2023-02-11T00:45:08;101990.00;;;4.01;56.04
62800;BME280;48842;51.046;13.796;2023-02-11T00:47:34;101987.53;;;4.03;56.31
62800;BME280;48842;51.046;13.796;2023-02-11T00:49:59;101982.44;;;4.05;56.27
62800;BME280;48842;51.046;13.796;2023-02-11T00:52:24;101978.22;;;4.07;56.10
62800;BME280;48842;51.046;13.796;2023-02-11T00:54:50;101973.91;;;4.07;56.63
62800;BME280;48842;51.046;13.796;2023-02-11T00:57:15;101953.25;;;4.09;56.51
62800;BME280;48842;51.046;13.796;2023-02-11T00:59:40;101956.22;;;4.15;56.50
62800;BME280;48842;51.046;13.796;2023-02-11T01:02:06;101954.75;;;4.20;56.76
62800;BME280;48842;51.046;13.796;2023-02-11T01:04:31;101941.34;;;4.27;56.65
62800;BME280;48842;51.046;13.796;2023-02-11T01:06:56;101928.97;;;4.38;56.83
62800;BME280;48842;51.046;13.796;2023-02-11T01:09:21;101934.66;;;4.47;56.71
62800;BME280;48842;51.046;13.796;2023-02-11T01:11:47;101925.69;;;4.57;56.77
62800;BME280;48842;51.046;13.796;2023-02-11T01:14:12;101922.78;;;4.67;56.80
62800;BME280;48842;51.046;13.796;2023-02-11T01:16:37;101918.88;;;4.76;56.80
62800;BME280;48842;51.046;13.796;2023-02-11T01:19:03;101928.84;;;4.84;56.51
62800;BME280;48842;51.046;13.796;2023-02-11T01:21:28;101932.84;;;4.94;56.48
62800;BME280;48842;51.046;13.796;2023-02-11T01:23:53;101941.94;;;5.02;56.04
62800;BME280;48842;51.046;13.796;2023-02-11T01:26:19;101938.84;;;5.10;55.90
62800;BME280;48842;51.046;13.796;2023-02-11T01:28:44;101942.63;;;5.16;55.91
62800;BME280;48842;51.046;13.796;2023-02-11T01:31:09;101947.25;;;5.22;56.31
62800;BME280;48842;51.046;13.796;2023-02-11T01:33:34;101940.78;;;5.30;55.88
62800;BME280;48842;51.046;13.796;2023-02-11T01:36:04;101943.75;;;5.38;55.80
62800;BME280;48842;51.046;13.796;2023-02-11T01:38:30;101946.66;;;5.44;55.50
62800;BME280;48842;51.046;13.796;2023-02-11T01:40:57;101944.28;;;5.49;55.47
62800;BME280;48842;51.046;13.796;2023-02-11T01:43:24;101938.44;;;5.53;55.27
62800;BME280;48842;51.046;13.796;2023-02-11T01:45:56;101931.84;;;5.59;55.62
62800;BME280;48842;51.046;13.796;2023-02-11T01:48:29;101925.88;;;5.62;55.23
62800;BME280;48842;51.046;13.796;2023-02-11T01:51:02;101923.63;;;5.68;55.32
62800;BME280;48842;51.046;13.796;2023-02-11T01:53:29;101902.97;;;5.71;55.33
62800;BME280;48842;51.046;13.796;2023-02-11T01:56:16;101910.19;;;5.77;55.17
62800;BME280;48842;51.046;13.796;2023-02-11T01:59:08;101905.19;;;5.82;54.92
62800;BME280;48842;51.046;13.796;2023-02-11T02:01:37;101913.97;;;5.84;54.98
62800;BME280;48842;51.046;13.796;2023-02-11T02:04:03;101903.47;;;5.82;54.92
62800;BME280;48842;51.046;13.796;2023-02-11T02:06:34;101900.22;;;5.86;54.77
62800;BME280;48842;51.046;13.796;2023-02-11T02:09:08;101895.09;;;5.88;55.00
62800;BME280;48842;51.046;13.796;2023-02-11T02:11:35;101898.75;;;5.91;54.93
62800;BME280;48842;51.046;13.796;2023-02-11T02:14:00;101892.78;;;5.94;54.72
62800;BME280;48842;51.046;13.796;2023-02-11T02:16:35;101894.56;;;5.95;54.76
62800;BME280;48842;51.046;13.796;2023-02-11T02:19:28;101886.13;;;5.99;54.86
62800;BME280;48842;51.046;13.796;2023-02-11T02:22:22;101889.69;;;6.01;54.81
62800;BME280;48842;51.046;13.796;2023-02-11T02:25:24;101903.69;;;6.03;54.74
62800;BME280;48842;51.046;13.796;2023-02-11T02:28:09;101893.41;;;6.06;54.72
62800;BME280;48842;51.046;13.796;2023-02-11T02:31:12;101894.44;;;6.10;54.66
62800;BME280;48842;51.046;13.796;2023-02-11T02:34:01;101893.72;;;6.13;54.70
62800;BME280;48842;51.046;13.796;2023-02-11T02:36:40;101883.44;;;6.16;54.71
62800;BME280;48842;51.046;13.796;2023-02-11T02:39:13;101876.69;;;6.19;54.74
62800;BME280;48842;51.046;13.796;2023-02-11T02:41:43;101864.69;;;6.23;54.60
62800;BME280;48842;51.046;13.796;2023-02-11T02:44:10;101870.03;;;6.26;54.70
62800;BME280;48842;51.046;13.796;2023-02-11T02:46:35;101858.88;;;6.28;54.58
62800;BME280;48842;51.046;13.796;2023-02-11T02:49:01;101861.69;;;6.33;54.54
62800;BME280;48842;51.046;13.796;2023-02-11T02:51:48;101860.81;;;6.33;54.51
62800;BME280;48842;51.046;13.796;2023-02-11T02:54:52;101849.66;;;6.35;54.53
62800;BME280;48842;51.046;13.796;2023-02-11T02:57:30;101845.47;;;6.39;54.43
62800;BME280;48842;51.046;13.796;2023-02-11T03:02:55;101845.75;;;6.45;54.19
62800;BME280;48842;51.046;13.796;2023-02-11T03:08:07;101853.94;;;6.53;54.02
62800;BME280;48842;51.046;13.796;2023-02-11T03:10:49;101865.22;;;6.53;54.30
62800;BME280;48842;51.046;13.796;2023-02-11T03:13:17;101867.91;;;6.55;54.14
62800;BME280;48842;51.046;13.796;2023-02-11T03:15:47;101866.16;;;6.55;54.02
62800;BME280;48842;51.046;13.796;2023-02-11T03:18:16;101867.09;;;6.56;54.32
62800;BME280;48842;51.046;13.796;2023-02-11T03:20:44;101857.47;;;6.55;53.99
62800;BME280;48842;51.046;13.796;2023-02-11T03:23:24;101857.47;;;6.55;54.08
62800;BME280;48842;51.046;13.796;2023-02-11T03:25:58;101851.66;;;6.60;54.03
62800;BME280;48842;51.046;13.796;2023-02-11T03:28:42;101844.72;;;6.61;53.91
62800;BME280;48842;51.046;13.796;2023-02-11T03:34:03;101824.16;;;6.67;53.30
62800;BME280;48842;51.046;13.796;2023-02-11T03:36:39;101830.16;;;6.64;53.21
62800;BME280;48842;51.046;13.796;2023-02-11T03:39:11;101823.09;;;6.62;53.19
62800;BME280;48842;51.046;13.796;2023-02-11T03:41:38;101821.44;;;6.64;53.23
62800;BME280;48842;51.046;13.796;2023-02-11T03:44:05;101810.19;;;6.65;53.05
62800;BME280;48842;51.046;13.796;2023-02-11T03:46:34;101803.50;;;6.70;53.28
62800;BME280;48842;51.046;13.796;2023-02-11T03:49:03;101805.38;;;6.74;53.08
62800;BME280;48842;51.046;13.796;2023-02-11T03:51:31;101794.84;;;6.71;53.10
62800;BME280;48842;51.046;13.796;2023-02-11T03:53:59;101797.56;;;6.74;53.25
62800;BME280;48842;51.046;13.796;2023-02-11T03:56:29;101794.22;;;6.77;53.09
62800;BME280;48842;51.046;13.796;2023-02-11T03:58:56;101781.19;;;6.77;53.16
62800;BME280;48842;51.046;13.796;2023-02-11T04:01:21;101782.66;;;6.70;53.34
62800;BME280;48842;51.046;13.796;2023-02-11T04:03:47;101783.34;;;6.66;53.42
62800;BME280;48842;51.046;13.796;2023-02-11T04:06:12;101784.16;;;6.65;53.69
62800;BME280;48842;51.046;13.796;2023-02-11T04:08:37;101785.28;;;6.70;53.71
62800;BME280;48842;51.046;13.796;2023-02-11T04:11:02;101786.03;;;6.68;53.76
62800;BME280;48842;51.046;13.796;2023-02-11T04:13:28;101776.63;;;6.71;53.76
62800;BME280;48842;51.046;13.796;2023-02-11T04:15:53;101780.19;;;6.73;53.96
62800;BME280;48842;51.046;13.796;2023-02-11T04:18:19;101783.94;;;6.80;53.70
62800;BME280;48842;51.046;13.796;2023-02-11T04:20:44;101785.78;;;6.82;53.60
62800;BME280;48842;51.046;13.796;2023-02-11T04:23:09;101791.69;;;6.78;54.06
62800;BME280;48842;51.046;13.796;2023-02-11T04:25:35;101788.31;;;6.81;54.04
62800;BME280;48842;51.046;13.796;2023-02-11T04:28:00;101785.53;;;6.76;54.01
62800;BME280;48842;51.046;13.796;2023-02-11T04:30:25;101789.88;;;6.77;53.82
62800;BME280;48842;51.046;13.796;2023-02-11T04:32:50;101788.50;;;6.86;53.74
62800;BME280;48842;51.046;13.796;2023-02-11T04:35:15;101788.50;;;6.86;53.98
62800;BME280;48842;51.046;13.796;2023-02-11T04:37:41;101790.25;;;6.85;54.08
62800;BME280;48842;51.046;13.796;2023-02-11T04:40:06;101791.19;;;6.87;53.77
62800;BME280;48842;51.046;13.796;2023-02-11T04:42:32;101805.25;;;6.91;53.89
62800;BME280;48842;51.046;13.796;2023-02-11T04:44:57;101802.66;;;6.91;53.86
62800;BME280;48842;51.046;13.796;2023-02-11T04:47:22;101817.41;;;6.92;53.96
62800;BME280;48842;51.046;13.796;2023-02-11T04:49:48;101814.13;;;6.96;53.93
62800;BME280;48842;51.046;13.796;2023-02-11T04:52:13;101807.13;;;6.95;53.97
62800;BME280;48842;51.046;13.796;2023-02-11T04:54:39;101806.38;;;6.97;53.80
62800;BME280;48842;51.046;13.796;2023-02-11T04:57:04;101797.56;;;6.94;53.93
62800;BME280;48842;51.046;13.796;2023-02-11T04:59:29;101805.38;;;6.94;54.03
62800;BME280;48842;51.046;13.796;2023-02-11T05:01:55;101806.88;;;6.89;54.12
62800;BME280;48842;51.046;13.796;2023-02-11T05:04:20;101801.53;;;6.86;54.14
62800;BME280;48842;51.046;13.796;2023-02-11T05:06:46;101814.56;;;6.86;54.45
62800;BME280;48842;51.046;13.796;2023-02-11T05:09:11;101824.03;;;6.84;54.67
62800;BME280;48842;51.046;13.796;2023-02-11T05:11:37;101811.91;;;6.84;54.95
62800;BME280;48842;51.046;13.796;2023-02-11T05:14:04;101811.69;;;6.79;55.32
62800;BME280;48842;51.046;13.796;2023-02-11T05:16:29;101821.84;;;6.73;56.13
62800;BME280;48842;51.046;13.796;2023-02-11T05:18:54;101820.81;;;6.70;56.74
62800;BME280;48842;51.046;13.796;2023-02-11T05:21:20;101813.56;;;6.62;57.30
62800;BME280;48842;51.046;13.796;2023-02-11T05:23:45;101810.50;;;6.52;57.94
62800;BME280;48842;51.046;13.796;2023-02-11T05:26:11;101811.78;;;6.42;58.26
62800;BME280;48842;51.046;13.796;2023-02-11T05:28:37;101816.91;;;6.40;58.39
62800;BME280;48842;51.046;13.796;2023-02-11T05:31:03;101811.78;;;6.42;57.94
62800;BME280;48842;51.046;13.796;2023-02-11T05:33:29;101805.75;;;6.43;58.16
62800;BME280;48842;51.046;13.796;2023-02-11T05:36:04;101815.44;;;6.45;58.16
62800;BME280;48842;51.046;13.796;2023-02-11T05:38:30;101801.69;;;6.50;57.78
62800;BME280;48842;51.046;13.796;2023-02-11T05:40:56;101804.31;;;6.50;58.14
62800;BME280;48842;51.046;13.796;2023-02-11T05:43:21;101798.28;;;6.51;58.15
62800;BME280;48842;51.046;13.796;2023-02-11T05:45:47;101802.53;;;6.49;58.39
62800;BME280;48842;51.046;13.796;2023-02-11T05:48:12;101808.78;;;6.33;59.22
62800;BME280;48842;51.046;13.796;2023-02-11T05:50:37;101803.09;;;6.41;58.88
62800;BME280;48842;51.046;13.796;2023-02-11T05:53:03;101793.56;;;6.42;58.82
62800;BME280;48842;51.046;13.796;2023-02-11T05:55:29;101801.31;;;6.40;59.22
62800;BME280;48842;51.046;13.796;2023-02-11T05:57:54;101802.53;;;6.29;60.21
62800;BME280;48842;51.046;13.796;2023-02-11T06:00:20;101799.19;;;6.32;59.71
62800;BME280;48842;51.046;13.796;2023-02-11T06:02:45;101792.31;;;6.34;60.03
62800;BME280;48842;51.046;13.796;2023-02-11T06:05:10;101786.31;;;6.35;60.24
62800;BME280;48842;51.046;13.796;2023-02-11T06:07:35;101776.03;;;6.38;59.92
62800;BME280;48842;51.046;13.796;2023-02-11T06:10:01;101784.69;;;6.37;60.44
62800;BME280;48842;51.046;13.796;2023-02-11T06:12:26;101766.59;;;6.40;59.78
62800;BME280;48842;51.046;13.796;2023-02-11T06:14:52;101782.69;;;6.31;60.58
62800;BME280;48842;51.046;13.796;2023-02-11T06:17:17;101785.50;;;6.36;60.20
62800;BME280;48842;51.046;13.796;2023-02-11T06:19:43;101777.69;;;6.36;60.47
62800;BME280;48842;51.046;13.796;2023-02-11T06:22:09;101771.88;;;6.41;59.94
62800;BME280;48842;51.046;13.796;2023-02-11T06:24:34;101790.75;;;6.37;60.25
62800;BME280;48842;51.046;13.796;2023-02-11T06:26:59;101776.03;;;6.38;60.19
62800;BME280;48842;51.046;13.796;2023-02-11T06:29:24;101761.44;;;6.41;59.88
62800;BME280;48842;51.046;13.796;2023-02-11T06:31:50;101764.25;;;6.46;59.83
62800;BME280;48842;51.046;13.796;2023-02-11T06:34:15;101765.81;;;6.42;60.07
62800;BME280;48842;51.046;13.796;2023-02-11T06:36:40;101762.47;;;6.45;60.11
62800;BME280;48842;51.046;13.796;2023-02-11T06:39:06;101768.56;;;6.45;59.89
62800;BME280;48842;51.046;13.796;2023-02-11T06:41:32;101764.00;;;6.40;59.85
62800;BME280;48842;51.046;13.796;2023-02-11T06:43:57;101758.09;;;6.44;59.50
62800;BME280;48842;51.046;13.796;2023-02-11T06:46:23;101759.25;;;6.51;59.59
62800;BME280;48842;51.046;13.796;2023-02-11T06:48:48;101762.72;;;6.51;59.54
62800;BME280;48842;51.046;13.796;2023-02-11T06:51:14;101752.47;;;6.54;59.34
62800;BME280;48842;51.046;13.796;2023-02-11T06:53:43;101753.47;;;6.58;59.26
62800;BME280;48842;51.046;13.796;2023-02-11T06:56:15;101751.06;;;6.62;59.14
62800;BME280;48842;51.046;13.796;2023-02-11T06:58:41;101757.38;;;6.68;58.86
62800;BME280;48842;51.046;13.796;2023-02-11T07:01:09;101752.38;;;6.72;58.60
62800;BME280;48842;51.046;13.796;2023-02-11T07:03:36;101745.56;;;6.76;58.66
62800;BME280;48842;51.046;13.796;2023-02-11T07:06:03;101747.22;;;6.74;58.62
62800;BME280;48842;51.046;13.796;2023-02-11T07:08:29;101746.47;;;6.76;58.83
62800;BME280;48842;51.046;13.796;2023-02-11T07:10:55;101749.56;;;6.68;59.21
62800;BME280;48842;51.046;13.796;2023-02-11T07:13:20;101750.31;;;6.65;59.63
62800;BME280;48842;51.046;13.796;2023-02-11T07:15:45;101758.69;;;6.58;60.49
62800;BME280;48842;51.046;13.796;2023-02-11T07:18:10;101753.09;;;6.49;61.17
62800;BME280;48842;51.046;13.796;2023-02-11T07:20:36;101750.50;;;6.49;61.12
62800;BME280;48842;51.046;13.796;2023-02-11T07:23:02;101761.09;;;6.53;61.11
62800;BME280;48842;51.046;13.796;2023-02-11T07:25:28;101761.59;;;6.44;61.92
62800;BME280;48842;51.046;13.796;2023-02-11T07:27:53;101757.06;;;6.40;62.26
62800;BME280;48842;51.046;13.796;2023-02-11T07:30:18;101766.97;;;6.49;61.45
62800;BME280;48842;51.046;13.796;2023-02-11T07:32:43;101769.97;;;6.58;61.50
62800;BME280;48842;51.046;13.796;2023-02-11T07:35:09;101786.63;;;6.62;61.79
62800;BME280;48842;51.046;13.796;2023-02-11T07:37:34;101774.84;;;6.70;61.37
62800;BME280;48842;51.046;13.796;2023-02-11T07:40:00;101780.06;;;6.70;61.66
62800;BME280;48842;51.046;13.796;2023-02-11T07:42:25;101767.78;;;6.68;61.69
62800;BME280;48842;51.046;13.796;2023-02-11T07:44:50;101766.88;;;6.67;61.87
62800;BME280;48842;51.046;13.796;2023-02-11T07:47:16;101775.59;;;6.68;61.94
62800;BME280;48842;51.046;13.796;2023-02-11T07:49:41;101767.53;;;6.61;62.36
62800;BME280;48842;51.046;13.796;2023-02-11T07:52:07;101771.03;;;6.62;62.37
62800;BME280;48842;51.046;13.796;2023-02-11T07:54:32;101775.25;;;6.60;62.90
62800;BME280;48842;51.046;13.796;2023-02-11T07:56:57;101775.41;;;6.63;62.24
62800;BME280;48842;51.046;13.796;2023-02-11T07:59:23;101774.38;;;6.59;62.71
62800;BME280;48842;51.046;13.796;2023-02-11T08:01:49;101778.16;;;6.66;62.88
62800;BME280;48842;51.046;13.796;2023-02-11T08:04:15;101776.34;;;6.65;62.93
62800;BME280;48842;51.046;13.796;2023-02-11T08:06:43;101767.72;;;6.66;62.79
62800;BME280;48842;51.046;13.796;2023-02-11T08:09:12;101764.56;;;6.73;62.34
62800;BME280;48842;51.046;13.796;2023-02-11T08:11:38;101762.97;;;6.77;62.15
62800;BME280;48842;51.046;13.796;2023-02-11T08:14:03;101764.88;;;6.81;62.05
62800;BME280;48842;51.046;13.796;2023-02-11T08:16:31;101770.97;;;6.81;62.02
62800;BME280;48842;51.046;13.796;2023-02-11T08:18:59;101767.00;;;6.90;61.75
62800;BME280;48842;51.046;13.796;2023-02-11T08:21:25;101769.03;;;6.97;61.49
62800;BME280;48842;51.046;13.796;2023-02-11T08:23:50;101769.16;;;7.00;61.22
62800;BME280;48842;51.046;13.796;2023-02-11T08:26:19;101765.72;;;7.01;61.15
62800;BME280;48842;51.046;13.796;2023-02-11T08:28:47;101758.78;;;7.02;61.07
62800;BME280;48842;51.046;13.796;2023-02-11T08:31:21;101767.63;;;7.05;60.86
62800;BME280;48842;51.046;13.796;2023-02-11T08:33:46;101768.59;;;7.07;60.62
62800;BME280;48842;51.046;13.796;2023-02-11T08:36:14;101765.72;;;7.01;60.42
62800;BME280;48842;51.046;13.796;2023-02-11T08:38:40;101753.66;;;7.03;60.49
62800;BME280;48842;51.046;13.796;2023-02-11T08:41:06;101767.63;;;7.05;60.34
62800;BME280;48842;51.046;13.796;2023-02-11T08:43:32;101757.13;;;7.04;59.97
62800;BME280;48842;51.046;13.796;2023-02-11T08:45:57;101758.09;;;7.06;59.81
62800;BME280;48842;51.046;13.796;2023-02-11T08:48:22;101757.19;;;7.05;59.94
62800;BME280;48842;51.046;13.796;2023-02-11T08:50:48;101751.16;;;7.06;59.85
62800;BME280;48842;51.046;13.796;2023-02-11T08:53:13;101760.94;;;7.12;59.40
62800;BME280;48842;51.046;13.796;2023-02-11T08:55:38;101760.06;;;7.11;59.31
62800;BME280;48842;51.046;13.796;2023-02-11T08:58:03;101758.75;;;7.00;59.48
62800;BME280;48842;51.046;13.796;2023-02-11T09:00:29;101764.06;;;7.03;59.63
62800;BME280;48842;51.046;13.796;2023-02-11T09:02:54;101767.50;;;7.02;59.41
62800;BME280;48842;51.046;13.796;2023-02-11T09:05:20;101768.59;;;7.07;59.52
62800;BME280;48842;51.046;13.796;2023-02-11T09:07:46;101771.56;;;6.95;59.43
62800;BME280;48842;51.046;13.796;2023-02-11T09:10:11;101781.25;;;6.98;59.26
62800;BME280;48842;51.046;13.796;2023-02-11T09:12:37;101791.91;;;7.04;59.48
62800;BME280;48842;51.046;13.796;2023-02-11T09:15:02;101783.47;;;7.10;59.13
62800;BME280;48842;51.046;13.796;2023-02-11T09:17:27;101766.47;;;7.20;58.94
62800;BME280;48842;51.046;13.796;2023-02-11T09:19:52;101759.75;;;7.25;58.72
62800;BME280;48842;51.046;13.796;2023-02-11T09:22:18;101774.63;;;7.27;58.62
62800;BME280;48842;51.046;13.796;2023-02-11T09:24:43;101781.41;;;7.24;58.49
62800;BME280;48842;51.046;13.796;2023-02-11T09:27:08;101792.25;;;7.33;58.34
62800;BME280;48842;51.046;13.796;2023-02-11T09:29:33;101799.09;;;7.31;58.42
62800;BME280;48842;51.046;13.796;2023-02-11T09:31:59;101793.16;;;7.14;58.76
62800;BME280;48842;51.046;13.796;2023-02-11T09:34:25;101806.19;;;7.14;58.89
62800;BME280;48842;51.046;13.796;2023-02-11T09:36:51;101809.59;;;7.11;59.08
62800;BME280;48842;51.046;13.796;2023-02-11T09:39:17;101799.34;;;7.16;58.76
62800;BME280;48842;51.046;13.796;2023-02-11T09:42:09;101807.59;;;7.06;59.23
62800;BME280;48842;51.046;13.796;2023-02-11T09:44:43;101797.75;;;7.20;59.38
62800;BME280;48842;51.046;13.796;2023-02-11T09:47:31;101799.47;;;7.19;59.42
62800;BME280;48842;51.046;13.796;2023-02-11T09:50:04;101790.16;;;7.24;59.12
62800;BME280;48842;51.046;13.796;2023-02-11T09:52:52;101779.06;;;7.30;59.16
62800;BME280;48842;51.046;13.796;2023-02-11T09:55:41;101778.94;;;7.27;59.58
62800;BME280;48842;51.046;13.796;2023-02-11T09:58:15;101785.06;;;7.27;59.34
62800;BME280;48842;51.046;13.796;2023-02-11T10:00:47;101787.84;;;7.32;58.99
62800;BME280;48842;51.046;13.796;2023-02-11T10:06:27;101786.50;;;7.21;59.54
62800;BME280;48842;51.046;13.796;2023-02-11T10:09:22;101793.16;;;7.14;60.45
62800;BME280;48842;51.046;13.796;2023-02-11T10:14:32;101789.63;;;7.33;59.53
62800;BME280;48842;51.046;13.796;2023-02-11T10:22:58;101770.53;;;7.55;58.96
62800;BME280;48842;51.046;13.796;2023-02-11T10:25:28;101772.50;;;7.61;58.93
62800;BME280;48842;51.046;13.796;2023-02-11T10:27:58;101768.44;;;7.69;58.67
62800;BME280;48842;51.046;13.796;2023-02-11T10:30:30;101766.91;;;7.74;59.01
62800;BME280;48842;51.046;13.796;2023-02-11T10:33:17;101776.25;;;7.69;58.53
62800;BME280;48842;51.046;13.796;2023-02-11T10:35:44;101766.59;;;7.66;58.45
62800;BME280;48842;51.046;13.796;2023-02-11T10:38:10;101775.44;;;7.70;58.74
62800;BME280;48842;51.046;13.796;2023-02-11T10:40:36;101789.59;;;7.77;58.79
62800;BME280;48842;51.046;13.796;2023-02-11T10:43:07;101801.75;;;7.76;58.40
62800;BME280;48842;51.046;13.796;2023-02-11T10:45:40;101784.81;;;7.88;58.17
62800;BME280;48842;51.046;13.796;2023-02-11T10:48:45;101778.94;;;7.93;58.22
62800;BME280;48842;51.046;13.796;2023-02-11T10:53:46;101776.41;;;7.95;58.00
62800;BME280;48842;51.046;13.796;2023-02-11T10:56:48;101750.97;;;7.89;58.28
62800;BME280;48842;51.046;13.796;2023-02-11T10:59:20;101748.75;;;8.00;58.05
62800;BME280;48842;51.046;13.796;2023-02-11T11:01:52;101753.97;;;8.00;58.33
62800;BME280;48842;51.046;13.796;2023-02-11T11:04:38;101756.56;;;8.00;58.30
62800;BME280;48842;51.046;13.796;2023-02-11T11:07:19;101755.63;;;7.98;58.16
62800;BME280;48842;51.046;13.796;2023-02-11T11:09:48;101752.25;;;8.00;58.02
62800;BME280;48842;51.046;13.796;2023-02-11T11:12:27;101753.91;;;7.98;58.37
62800;BME280;48842;51.046;13.796;2023-02-11T11:14:54;101759.06;;;7.97;58.44
62800;BME280;48842;51.046;13.796;2023-02-11T11:17:20;101750.69;;;8.06;58.32
62800;BME280;48842;51.046;13.796;2023-02-11T11:19:45;101748.19;;;8.09;58.54
62800;BME280;48842;51.046;13.796;2023-02-11T11:22:20;101752.88;;;8.17;58.48
62800;BME280;48842;51.046;13.796;2023-02-11T11:24:46;101748.81;;;8.26;58.39
62800;BME280;48842;51.046;13.796;2023-02-11T11:27:20;101740.06;;;8.24;58.24
62800;BME280;48842;51.046;13.796;2023-02-11T11:29:49;101744.53;;;8.28;58.07
62800;BME280;48842;51.046;13.796;2023-02-11T11:32:20;101751.69;;;8.33;58.45
62800;BME280;48842;51.046;13.796;2023-02-11T11:34:54;101744.78;;;8.34;58.03
62800;BME280;48842;51.046;13.796;2023-02-11T11:37:25;101752.72;;;8.37;58.19
62800;BME280;48842;51.046;13.796;2023-02-11T11:42:39;101738.81;;;8.38;57.92
62800;BME280;48842;51.046;13.796;2023-02-11T11:50:39;101743.97;;;8.36;58.20
62800;BME280;48842;51.046;13.796;2023-02-11T11:53:25;101750.97;;;8.37;58.14
62800;BME280;48842;51.046;13.796;2023-02-11T11:55:59;101766.75;;;8.41;57.95
62800;BME280;48842;51.046;13.796;2023-02-11T11:58:27;101765.19;;;8.44;57.96
62800;BME280;48842;51.046;13.796;2023-02-11T12:04:08;101762.69;;;8.47;58.28
62800;BME280;48842;51.046;13.796;2023-02-11T12:07:08;101756.69;;;8.50;58.02
62800;BME280;48842;51.046;13.796;2023-02-11T12:12:19;101766.63;;;8.60;57.89
62800;BME280;48842;51.046;13.796;2023-02-11T12:15:10;101758.44;;;8.51;58.22
62800;BME280;48842;51.046;13.796;2023-02-11T12:23:27;101754.47;;;8.38;58.87
62800;BME280;48842;51.046;13.796;2023-02-11T12:26:15;101747.50;;;8.37;58.75
62800;BME280;48842;51.046;13.796;2023-02-11T12:28:52;101750.50;;;8.24;59.71
62800;BME280;48842;51.046;13.796;2023-02-11T12:34:35;101745.38;;;8.27;59.68
62800;BME280;48842;51.046;13.796;2023-02-11T12:39:56;101745.28;;;8.24;60.07
62800;BME280;48842;51.046;13.796;2023-02-11T12:42:41;101752.19;;;8.23;60.55
62800;BME280;48842;51.046;13.796;2023-02-11T12:55:01;101749.09;;;8.09;61.31
62800;BME280;48842;51.046;13.796;2023-02-11T12:57:30;101744.53;;;8.03;61.53
62800;BME280;48842;51.046;13.796;2023-02-11T13:00:18;101751.28;;;7.98;62.05
62800;BME280;48842;51.046;13.796;2023-02-11T13:03:01;101737.19;;;7.93;62.27
62800;BME280;48842;51.046;13.796;2023-02-11T13:05:32;101743.53;;;8.00;61.91
62800;BME280;48842;51.046;13.796;2023-02-11T13:10:36;101737.75;;;8.09;61.97
62800;BME280;48842;51.046;13.796;2023-02-11T13:13:18;101730.84;;;8.09;61.85
62800;BME280;48842;51.046;13.796;2023-02-11T13:16:05;101718.56;;;8.07;62.02
62800;BME280;48842;51.046;13.796;2023-02-11T13:24:18;101715.44;;;8.41;61.14
62800;BME280;48842;51.046;13.796;2023-02-11T13:26:54;101718.88;;;8.40;61.12
62800;BME280;48842;51.046;13.796;2023-02-11T13:29:54;101716.28;;;8.40;60.79
62800;BME280;48842;51.046;13.796;2023-02-11T13:35:35;101710.94;;;8.37;61.18
62800;BME280;48842;51.046;13.796;2023-02-11T13:38:03;101711.78;;;8.36;60.88
62800;BME280;48842;51.046;13.796;2023-02-11T13:40:37;101712.59;;;8.35;60.98
62800;BME280;48842;51.046;13.796;2023-02-11T13:43:05;101718.84;;;8.38;60.99
62800;BME280;48842;51.046;13.796;2023-02-11T13:45:49;101722.22;;;8.36;61.45
62800;BME280;48842;51.046;13.796;2023-02-11T13:48:27;101715.31;;;8.38;61.14
62800;BME280;48842;51.046;13.796;2023-02-11T13:51:06;101714.53;;;8.41;61.35
62800;BME280;48842;51.046;13.796;2023-02-11T13:53:58;101719.00;;;8.43;61.41
62800;BME280;48842;51.046;13.796;2023-02-11T13:56:34;101716.28;;;8.40;61.76
62800;BME280;48842;51.046;13.796;2023-02-11T13:59:02;101711.09;;;8.42;61.23
62800;BME280;48842;51.046;13.796;2023-02-11T14:04:31;101711.28;;;8.46;61.39
62800;BME280;48842;51.046;13.796;2023-02-11T14:07:29;101718.31;;;8.47;61.54
62800;BME280;48842;51.046;13.796;2023-02-11T14:13:32;101720.66;;;8.41;61.64
62800;BME280;48842;51.046;13.796;2023-02-11T14:16:10;101730.16;;;8.39;62.33
62800;BME280;48842;51.046;13.796;2023-02-11T14:21:15;101730.75;;;8.32;62.39
62800;BME280;48842;51.046;13.796;2023-02-11T14:23:41;101732.56;;;8.33;62.12